sensor_id;sensor_type;location;lat;lon;timestamp;pressure;altitude;pressure_sealevel;temperature;humidity
40650;BME280;26342;42.826;23.992;2023-05-21T00:00:35;95320.38;;;11.70;100.00
40650;BME280;26342;42.826;23.992;2023-05-21T00:03:00;95314.47;;;11.68;100.00
40650;BME280;26342;42.826;23.992;2023-05-21T00:05:25;95318.75;;;11.69;100.00
40650;BME280;26342;42.826;23.992;2023-05-21T00:07:51;95308.06;;;11.64;100.00
40650;BME280;26342;42.826;23.992;2023-05-21T00:10:19;95311.25;;;11.61;100.00
40650;BME280;26342;42.826;23.992;2023-05-21T00:12:45;95290.41;;;11.53;100.00
40650;BME280;26342;42.826;23.992;2023-05-21T00:15:11;95304.06;;;11.56;100.00
40650;BME280;26342;42.826;23.992;2023-05-21T00:17:37;95299.50;;;11.46;100.00
40650;BME280;26342;42.826;23.992;2023-05-21T00:20:03;95300.06;;;11.54;100.00
40650;BME280;26342;42.826;23.992;2023-05-21T00:22:32;95300.56;;;11.61;100.00
40650;BME280;26342;42.826;23.992;2023-05-21T00:25:00;95302.72;;;11.59;100.00
40650;BME280;26342;42.826;23.992;2023-05-21T00:27:25;95298.69;;;11.51;100.00
40650;BME280;26342;42.826;23.992;2023-05-21T00:29:51;95296.81;;;11.52;100.00
40650;BME280;26342;42.826;23.992;2023-05-21T00:32:16;95294.66;;;11.43;100.00
40650;BME280;26342;42.826;23.992;2023-05-21T00:34:41;95292.78;;;11.44;100.00
40650;BME280;26342;42.826;23.992;2023-05-21T00:37:07;95291.19;;;11.43;100.00
40650;BME280;26342;42.826;23.992;2023-05-21T00:39:34;95291.94;;;11.28;100.00
40650;BME280;26342;42.826;23.992;2023-05-21T00:41:59;95298.34;;;11.27;100.00
40650;BME280;26342;42.826;23.992;2023-05-21T00:44:25;95284.19;;;11.16;100.00
40650;BME280;26342;42.826;23.992;2023-05-21T00:46:51;95289.28;;;11.23;100.00
40650;BME280;26342;42.826;23.992;2023-05-21T00:49:22;95293.31;;;11.31;100.00
40650;BME280;26342;42.826;23.992;2023-05-21T00:51:48;95291.72;;;11.30;100.00
40650;BME280;26342;42.826;23.992;2023-05-21T00:54:14;95292.75;;;11.24;100.00
40650;BME280;26342;42.826;23.992;2023-05-21T00:56:40;95276.13;;;11.11;100.00
40650;BME280;26342;42.826;23.992;2023-05-21T00:59:06;95280.44;;;11.17;100.00
40650;BME280;26342;42.826;23.992;2023-05-21T01:01:31;95289.22;;;11.13;100.00
40650;BME280;26342;42.826;23.992;2023-05-21T01:04:01;95288.19;;;11.14;100.00
40650;BME280;26342;42.826;23.992;2023-05-21T01:06:26;95281.19;;;11.03;100.00
40650;BME280;26342;42.826;23.992;2023-05-21T01:08:58;95280.91;;;11.04;100.00
40650;BME280;26342;42.826;23.992;2023-05-21T01:11:43;95273.13;;;10.98;100.00
40650;BME280;26342;42.826;23.992;2023-05-21T01:14:11;95282.53;;;11.00;100.00
40650;BME280;26342;42.826;23.992;2023-05-21T01:16:38;95283.59;;;11.04;100.00
40650;BME280;26342;42.826;23.992;2023-05-21T01:19:05;95290.00;;;11.03;100.00
40650;BME280;26342;42.826;23.992;2023-05-21T01:21:36;95281.44;;;11.01;100.00
40650;BME280;26342;42.826;23.992;2023-05-21T01:24:03;95288.13;;;10.99;100.00
40650;BME280;26342;42.826;23.992;2023-05-21T01:26:32;95287.59;;;11.02;100.00
40650;BME280;26342;42.826;23.992;2023-05-21T01:29:04;95285.97;;;10.96;100.00
40650;BME280;26342;42.826;23.992;2023-05-21T01:31:35;95291.03;;;10.92;100.00
40650;BME280;26342;42.826;23.992;2023-05-21T01:34:04;95288.84;;;10.89;100.00
40650;BME280;26342;42.826;23.992;2023-05-21T01:36:38;95291.78;;;10.87;100.00
40650;BME280;26342;42.826;23.992;2023-05-21T01:39:16;95291.53;;;10.89;100.00
40650;BME280;26342;42.826;23.992;2023-05-21T01:41:44;95291.25;;;10.85;100.00
40650;BME280;26342;42.826;23.992;2023-05-21T01:44:10;95266.09;;;10.71;100.00
40650;BME280;26342;42.826;23.992;2023-05-21T01:46:37;95283.53;;;10.89;100.00
40650;BME280;26342;42.826;23.992;2023-05-21T01:49:04;95288.59;;;10.85;100.00
40650;BME280;26342;42.826;23.992;2023-05-21T01:51:29;95288.28;;;10.77;100.00
40650;BME280;26342;42.826;23.992;2023-05-21T01:53:55;95289.13;;;10.82;100.00
40650;BME280;26342;42.826;23.992;2023-05-21T01:56:20;95287.25;;;10.83;100.00
40650;BME280;26342;42.826;23.992;2023-05-21T01:58:50;95280.00;;;10.78;100.00
40650;BME280;26342;42.826;23.992;2023-05-21T02:01:15;95275.72;;;10.72;100.00
40650;BME280;26342;42.826;23.992;2023-05-21T02:03:41;95276.25;;;10.69;100.00
40650;BME280;26342;42.826;23.992;2023-05-21T02:06:06;95272.47;;;10.60;100.00
40650;BME280;26342;42.826;23.992;2023-05-21T02:08:31;95279.09;;;10.52;100.00
40650;BME280;26342;42.826;23.992;2023-05-21T02:10:57;95283.38;;;10.58;100.00
40650;BME280;26342;42.826;23.992;2023-05-21T02:13:23;95271.88;;;10.58;100.00
40650;BME280;26342;42.826;23.992;2023-05-21T02:15:49;95270.00;;;10.53;100.00
40650;BME280;26342;42.826;23.992;2023-05-21T02:18:15;95265.72;;;10.47;100.00
40650;BME280;26342;42.826;23.992;2023-05-21T02:20:42;95263.56;;;10.44;100.00
40650;BME280;26342;42.826;23.992;2023-05-21T02:23:08;95267.84;;;10.45;100.00
40650;BME280;26342;42.826;23.992;2023-05-21T02:25:34;95266.25;;;10.49;100.00
40650;BME280;26342;42.826;23.992;2023-05-21T02:27:59;95266.72;;;10.41;100.00
40650;BME280;26342;42.826;23.992;2023-05-21T02:30:25;95265.72;;;10.47;100.00
40650;BME280;26342;42.826;23.992;2023-05-21T02:32:51;95261.69;;;10.45;100.00
40650;BME280;26342;42.826;23.992;2023-05-21T02:35:17;95259.84;;;10.45;100.00
40650;BME280;26342;42.826;23.992;2023-05-21T02:37:42;95254.47;;;10.40;100.00
40650;BME280;26342;42.826;23.992;2023-05-21T02:40:08;95254.72;;;10.39;100.00
40650;BME280;26342;42.826;23.992;2023-05-21T02:42:35;95268.91;;;10.44;100.00
40650;BME280;26342;42.826;23.992;2023-05-21T02:45:01;95260.34;;;10.42;100.00
40650;BME280;26342;42.826;23.992;2023-05-21T02:47:26;95256.59;;;10.38;100.00
40650;BME280;26342;42.826;23.992;2023-05-21T02:49:53;95252.28;;;10.32;100.00
40650;BME280;26342;42.826;23.992;2023-05-21T02:52:19;95260.31;;;10.37;100.00
40650;BME280;26342;42.826;23.992;2023-05-21T02:54:48;95265.38;;;10.39;100.00
40650;BME280;26342;42.826;23.992;2023-05-21T02:57:13;95259.28;;;10.43;100.00
40650;BME280;26342;42.826;23.992;2023-05-21T02:59:38;95246.94;;;10.32;100.00
40650;BME280;26342;42.826;23.992;2023-05-21T03:02:04;95254.72;;;10.39;100.00
40650;BME280;26342;42.826;23.992;2023-05-21T03:04:30;95242.72;;;10.41;100.00
40650;BME280;26342;42.826;23.992;2023-05-21T03:06:58;95261.41;;;10.41;100.00
40650;BME280;26342;42.826;23.992;2023-05-21T03:09:26;95254.19;;;10.42;100.00
40650;BME280;26342;42.826;23.992;2023-05-21T03:11:51;95256.88;;;10.42;100.00
40650;BME280;26342;42.826;23.992;2023-05-21T03:14:17;95259.53;;;10.42;100.00
40650;BME280;26342;42.826;23.992;2023-05-21T03:16:42;95251.84;;;10.45;100.00
40650;BME280;26342;42.826;23.992;2023-05-21T03:19:09;95245.63;;;10.34;100.00
40650;BME280;26342;42.826;23.992;2023-05-21T03:21:35;95252.66;;;10.51;100.00
40650;BME280;26342;42.826;23.992;2023-05-21T03:24:02;95251.84;;;10.45;100.00
40650;BME280;26342;42.826;23.992;2023-05-21T03:26:28;95255.34;;;10.51;100.00
40650;BME280;26342;42.826;23.992;2023-05-21T03:28:56;95260.69;;;10.56;100.00
40650;BME280;26342;42.826;23.992;2023-05-21T03:31:23;95254.59;;;10.60;100.00
40650;BME280;26342;42.826;23.992;2023-05-21T03:33:48;95250.88;;;10.67;100.00
40650;BME280;26342;42.826;23.992;2023-05-21T03:36:14;95254.34;;;10.72;100.00
40650;BME280;26342;42.826;23.992;2023-05-21T03:38:39;95236.19;;;10.64;100.00
40650;BME280;26342;42.826;23.992;2023-05-21T03:41:08;95258.41;;;10.75;100.00
40650;BME280;26342;42.826;23.992;2023-05-21T03:43:34;95259.72;;;10.77;100.00
40650;BME280;26342;42.826;23.992;2023-05-21T03:45:59;95231.41;;;10.71;100.00
40650;BME280;26342;42.826;23.992;2023-05-21T03:48:25;95246.91;;;10.79;100.00
40650;BME280;26342;42.826;23.992;2023-05-21T03:50:50;95252.25;;;10.79;100.00
40650;BME280;26342;42.826;23.992;2023-05-21T03:53:16;95246.13;;;10.79;100.00
40650;BME280;26342;42.826;23.992;2023-05-21T03:55:41;95246.13;;;10.79;100.00
40650;BME280;26342;42.826;23.992;2023-05-21T03:58:07;95248.25;;;10.82;100.00
40650;BME280;26342;42.826;23.992;2023-05-21T04:00:33;95246.91;;;10.79;100.00
40650;BME280;26342;42.826;23.992;2023-05-21T04:03:01;95246.94;;;10.84;100.00
40650;BME280;26342;42.826;23.992;2023-05-21T04:05:27;95246.69;;;10.86;100.00
40650;BME280;26342;42.826;23.992;2023-05-21T04:07:52;95241.59;;;10.89;100.00
40650;BME280;26342;42.826;23.992;2023-05-21T04:10:18;95253.34;;;10.88;100.00
40650;BME280;26342;42.826;23.992;2023-05-21T04:12:43;95250.19;;;10.92;100.00
40650;BME280;26342;42.826;23.992;2023-05-21T04:15:09;95249.38;;;10.96;100.00
40650;BME280;26342;42.826;23.992;2023-05-21T04:17:34;95251.53;;;10.99;100.00
40650;BME280;26342;42.826;23.992;2023-05-21T04:20:00;95254.72;;;10.96;100.00
40650;BME280;26342;42.826;23.992;2023-05-21T04:22:25;95247.28;;;11.03;100.00
40650;BME280;26342;42.826;23.992;2023-05-21T04:24:54;95252.34;;;11.05;100.00
40650;BME280;26342;42.826;23.992;2023-05-21T04:27:23;95255.03;;;11.00;100.00
40650;BME280;26342;42.826;23.992;2023-05-21T04:29:49;95255.81;;;11.05;100.00
40650;BME280;26342;42.826;23.992;2023-05-21T04:32:15;95254.50;;;11.13;100.00
40650;BME280;26342;42.826;23.992;2023-05-21T04:34:42;95247.31;;;11.18;100.00
40650;BME280;26342;42.826;23.992;2023-05-21T04:37:08;95248.16;;;11.24;100.00
40650;BME280;26342;42.826;23.992;2023-05-21T04:39:33;95251.34;;;11.26;100.00
40650;BME280;26342;42.826;23.992;2023-05-21T04:41:59;95232.09;;;11.14;100.00
40650;BME280;26342;42.826;23.992;2023-05-21T04:44:26;95247.84;;;11.21;100.00
40650;BME280;26342;42.826;23.992;2023-05-21T04:46:51;95257.47;;;11.16;100.00
40650;BME280;26342;42.826;23.992;2023-05-21T04:49:18;95246.78;;;11.22;100.00
40650;BME280;26342;42.826;23.992;2023-05-21T04:51:45;95244.91;;;11.17;100.00
40650;BME280;26342;42.826;23.992;2023-05-21T04:54:11;95253.75;;;11.28;100.00
40650;BME280;26342;42.826;23.992;2023-05-21T04:56:36;95256.44;;;11.33;100.00
40650;BME280;26342;42.826;23.992;2023-05-21T04:59:02;95243.34;;;11.31;100.00
40650;BME280;26342;42.826;23.992;2023-05-21T05:01:28;95245.22;;;11.36;100.00
40650;BME280;26342;42.826;23.992;2023-05-21T05:03:54;95254.06;;;11.41;100.00
40650;BME280;26342;42.826;23.992;2023-05-21T05:06:20;95253.22;;;11.36;100.00
40650;BME280;26342;42.826;23.992;2023-05-21T05:08:46;95251.91;;;11.43;100.00
40650;BME280;26342;42.826;23.992;2023-05-21T05:11:12;95254.59;;;11.38;100.00
40650;BME280;26342;42.826;23.992;2023-05-21T05:13:39;95262.06;;;11.41;100.00
40650;BME280;26342;42.826;23.992;2023-05-21T05:16:06;95269.28;;;11.51;100.00
40650;BME280;26342;42.826;23.992;2023-05-21T05:18:32;95259.41;;;11.52;100.00
40650;BME280;26342;42.826;23.992;2023-05-21T05:20:58;95257.81;;;11.56;100.00
40650;BME280;26342;42.826;23.992;2023-05-21T05:23:24;95238.28;;;11.45;100.00
40650;BME280;26342;42.826;23.992;2023-05-21T05:25:49;95267.97;;;11.59;100.00
40650;BME280;26342;42.826;23.992;2023-05-21T05:28:15;95265.03;;;11.60;100.00
40650;BME280;26342;42.826;23.992;2023-05-21T05:30:40;95245.00;;;11.48;100.00
40650;BME280;26342;42.826;23.992;2023-05-21T05:33:05;95259.16;;;11.58;100.00
40650;BME280;26342;42.826;23.992;2023-05-21T05:35:31;95263.16;;;11.66;100.00
40650;BME280;26342;42.826;23.992;2023-05-21T05:37:57;95255.69;;;11.73;100.00
40650;BME280;26342;42.826;23.992;2023-05-21T05:40:22;95255.72;;;11.83;100.00
40650;BME280;26342;42.826;23.992;2023-05-21T05:42:47;95251.47;;;11.87;100.00
40650;BME280;26342;42.826;23.992;2023-05-21T05:45:13;95255.72;;;11.88;100.00
40650;BME280;26342;42.826;23.992;2023-05-21T05:47:39;95258.69;;;11.97;100.00
40650;BME280;26342;42.826;23.992;2023-05-21T05:50:05;95258.13;;;12.05;100.00
40650;BME280;26342;42.826;23.992;2023-05-21T05:52:30;95255.19;;;12.12;100.00
40650;BME280;26342;42.826;23.992;2023-05-21T05:54:56;95248.78;;;12.18;100.00
40650;BME280;26342;42.826;23.992;2023-05-21T05:57:21;95247.44;;;12.20;100.00
40650;BME280;26342;42.826;23.992;2023-05-21T05:59:46;95253.31;;;12.22;100.00
40650;BME280;26342;42.826;23.992;2023-05-21T06:02:12;95247.69;;;12.29;100.00
40650;BME280;26342;42.826;23.992;2023-05-21T06:04:37;95258.38;;;12.34;100.00
40650;BME280;26342;42.826;23.992;2023-05-21T06:07:03;95260.78;;;12.41;100.00
40650;BME280;26342;42.826;23.992;2023-05-21T06:09:28;95252.47;;;12.42;100.00
40650;BME280;26342;42.826;23.992;2023-05-21T06:11:54;95257.56;;;12.49;100.00
40650;BME280;26342;42.826;23.992;2023-05-21T06:14:19;95251.66;;;12.57;100.00
40650;BME280;26342;42.826;23.992;2023-05-21T06:16:45;95230.22;;;12.57;100.00
40650;BME280;26342;42.826;23.992;2023-05-21T06:19:10;95242.22;;;12.75;100.00
40650;BME280;26342;42.826;23.992;2023-05-21T06:21:36;95214.94;;;12.68;100.00
40650;BME280;26342;42.826;23.992;2023-05-21T06:24:01;95231.19;;;12.86;100.00
40650;BME280;26342;42.826;23.992;2023-05-21T06:26:27;95249.06;;;13.01;100.00
40650;BME280;26342;42.826;23.992;2023-05-21T06:28:52;95243.19;;;13.04;100.00
40650;BME280;26342;42.826;23.992;2023-05-21T06:31:17;95233.50;;;13.08;100.00
40650;BME280;26342;42.826;23.992;2023-05-21T06:33:43;95240.97;;;13.17;100.00
40650;BME280;26342;42.826;23.992;2023-05-21T06:36:08;95240.94;;;13.27;100.00
40650;BME280;26342;42.826;23.992;2023-05-21T06:38:34;95243.34;;;13.28;100.00
40650;BME280;26342;42.826;23.992;2023-05-21T06:41:01;95240.63;;;13.33;100.00
40650;BME280;26342;42.826;23.992;2023-05-21T06:43:28;95242.50;;;13.38;100.00
40650;BME280;26342;42.826;23.992;2023-05-21T06:45:53;95231.34;;;13.10;100.00
40650;BME280;26342;42.826;23.992;2023-05-21T06:48:18;95247.13;;;13.22;100.00
40650;BME280;26342;42.826;23.992;2023-05-21T06:50:44;95244.38;;;13.37;100.00
40650;BME280;26342;42.826;23.992;2023-05-21T06:53:09;95241.63;;;13.48;100.00
40650;BME280;26342;42.826;23.992;2023-05-21T06:55:35;95240.75;;;13.57;100.00
40650;BME280;26342;42.826;23.992;2023-05-21T06:58:01;95246.00;;;13.73;100.00
40650;BME280;26342;42.826;23.992;2023-05-21T07:00:26;95244.63;;;13.80;100.00
40650;BME280;26342;42.826;23.992;2023-05-21T07:02:52;95242.38;;;13.92;100.00
40650;BME280;26342;42.826;23.992;2023-05-21T07:05:17;95236.34;;;13.77;100.00
40650;BME280;26342;42.826;23.992;2023-05-21T07:07:43;95235.75;;;13.85;100.00
40650;BME280;26342;42.826;23.992;2023-05-21T07:10:08;95244.28;;;13.87;100.00
40650;BME280;26342;42.826;23.992;2023-05-21T07:12:34;95244.31;;;13.82;100.00
40650;BME280;26342;42.826;23.992;2023-05-21T07:14:59;95254.75;;;13.88;100.00
40650;BME280;26342;42.826;23.992;2023-05-21T07:17:25;95241.31;;;13.93;100.00
40650;BME280;26342;42.826;23.992;2023-05-21T07:19:50;95247.44;;;13.99;100.00
40650;BME280;26342;42.826;23.992;2023-05-21T07:22:15;95236.63;;;14.04;100.00
40650;BME280;26342;42.826;23.992;2023-05-21T07:24:41;95232.84;;;14.10;100.00
40650;BME280;26342;42.826;23.992;2023-05-21T07:27:06;95248.28;;;14.23;100.00
40650;BME280;26342;42.826;23.992;2023-05-21T07:29:32;95249.50;;;14.36;100.00
40650;BME280;26342;42.826;23.992;2023-05-21T07:31:58;95238.81;;;14.60;100.00
40650;BME280;26342;42.826;23.992;2023-05-21T07:34:24;95239.19;;;14.77;100.00
40650;BME280;26342;42.826;23.992;2023-05-21T07:36:50;95232.44;;;14.80;100.00
40650;BME280;26342;42.826;23.992;2023-05-21T07:39:15;95227.38;;;14.97;100.00
40650;BME280;26342;42.826;23.992;2023-05-21T07:41:41;95234.00;;;15.05;100.00
40650;BME280;26342;42.826;23.992;2023-05-21T07:44:07;95227.78;;;15.10;100.00
40650;BME280;26342;42.826;23.992;2023-05-21T07:46:32;95240.63;;;15.13;100.00
40650;BME280;26342;42.826;23.992;2023-05-21T07:48:57;95234.47;;;15.12;100.00
40650;BME280;26342;42.826;23.992;2023-05-21T07:51:23;95237.16;;;15.31;100.00
40650;BME280;26342;42.826;23.992;2023-05-21T07:53:48;95230.59;;;15.61;100.00
40650;BME280;26342;42.826;23.992;2023-05-21T07:56:14;95218.34;;;15.87;100.00
40650;BME280;26342;42.826;23.992;2023-05-21T07:58:39;95224.63;;;16.15;100.00
40650;BME280;26342;42.826;23.992;2023-05-21T08:01:04;95216.41;;;16.39;100.00
40650;BME280;26342;42.826;23.992;2023-05-21T08:03:30;95222.78;;;16.57;100.00
40650;BME280;26342;42.826;23.992;2023-05-21T08:05:55;95218.03;;;16.68;100.00
40650;BME280;26342;42.826;23.992;2023-05-21T08:08:21;95217.38;;;16.76;100.00
40650;BME280;26342;42.826;23.992;2023-05-21T08:10:47;95214.75;;;17.12;100.00
40650;BME280;26342;42.826;23.992;2023-05-21T08:13:16;95213.31;;;17.28;100.00
40650;BME280;26342;42.826;23.992;2023-05-21T08:15:42;95209.03;;;17.64;100.00
40650;BME280;26342;42.826;23.992;2023-05-21T08:18:07;95202.59;;;17.87;100.00
40650;BME280;26342;42.826;23.992;2023-05-21T08:20:33;95211.53;;;18.19;100.00
40650;BME280;26342;42.826;23.992;2023-05-21T08:22:59;95215.97;;;18.46;100.00
40650;BME280;26342;42.826;23.992;2023-05-21T08:25:28;95208.31;;;18.70;100.00
40650;BME280;26342;42.826;23.992;2023-05-21T08:27:54;95210.28;;;18.87;100.00
40650;BME280;26342;42.826;23.992;2023-05-21T08:30:19;95208.66;;;18.77;100.00
40650;BME280;26342;42.826;23.992;2023-05-21T08:32:46;95204.38;;;18.76;100.00
40650;BME280;26342;42.826;23.992;2023-05-21T08:35:12;95190.38;;;18.74;100.00
40650;BME280;26342;42.826;23.992;2023-05-21T08:37:37;95195.28;;;18.72;100.00
40650;BME280;26342;42.826;23.992;2023-05-21T08:40:03;95186.09;;;18.73;100.00
40650;BME280;26342;42.826;23.992;2023-05-21T08:42:39;95188.59;;;18.69;100.00
40650;BME280;26342;42.826;23.992;2023-05-21T08:45:07;95192.75;;;18.67;100.00
40650;BME280;26342;42.826;23.992;2023-05-21T08:47:35;95183.19;;;18.69;100.00
40650;BME280;26342;42.826;23.992;2023-05-21T08:50:04;95200.69;;;18.72;100.00
40650;BME280;26342;42.826;23.992;2023-05-21T08:52:30;95191.00;;;18.71;100.00
40650;BME280;26342;42.826;23.992;2023-05-21T08:54:56;95188.59;;;18.69;100.00
40650;BME280;26342;42.826;23.992;2023-05-21T08:57:24;95186.56;;;18.75;100.00
40650;BME280;26342;42.826;23.992;2023-05-21T08:59:53;95195.28;;;18.72;100.00
40650;BME280;26342;42.826;23.992;2023-05-21T09:02:20;95196.09;;;18.73;100.00
40650;BME280;26342;42.826;23.992;2023-05-21T09:04:46;95206.09;;;18.72;100.00
40650;BME280;26342;42.826;23.992;2023-05-21T09:07:14;95195.91;;;18.69;100.00
40650;BME280;26342;42.826;23.992;2023-05-21T09:09:46;95191.31;;;18.69;100.00
40650;BME280;26342;42.826;23.992;2023-05-21T09:12:13;95187.81;;;18.69;100.00
40650;BME280;26342;42.826;23.992;2023-05-21T09:14:39;95184.66;;;18.76;100.00
40650;BME280;26342;42.826;23.992;2023-05-21T09:17:07;95184.47;;;18.72;100.00
40650;BME280;26342;42.826;23.992;2023-05-21T09:19:32;95191.50;;;18.73;100.00
40650;BME280;26342;42.826;23.992;2023-05-21T09:22:02;95175.28;;;18.73;100.00
40650;BME280;26342;42.826;23.992;2023-05-21T09:24:30;95178.16;;;18.85;100.00
40650;BME280;26342;42.826;23.992;2023-05-21T09:26:56;95176.94;;;19.00;100.00
40650;BME280;26342;42.826;23.992;2023-05-21T09:29:23;95177.44;;;19.19;100.00
40650;BME280;26342;42.826;23.992;2023-05-21T09:31:50;95169.88;;;19.73;100.00
40650;BME280;26342;42.826;23.992;2023-05-21T09:34:15;95166.22;;;19.87;100.00
40650;BME280;26342;42.826;23.992;2023-05-21T09:36:41;95172.75;;;19.86;100.00
40650;BME280;26342;42.826;23.992;2023-05-21T09:39:08;95166.22;;;19.78;100.00
40650;BME280;26342;42.826;23.992;2023-05-21T09:41:36;95163.19;;;19.53;100.00
40650;BME280;26342;42.826;23.992;2023-05-21T09:44:02;95164.16;;;19.58;100.00
40650;BME280;26342;42.826;23.992;2023-05-21T09:46:39;95162.09;;;19.63;100.00
40650;BME280;26342;42.826;23.992;2023-05-21T09:49:05;95164.31;;;19.61;100.00
40650;BME280;26342;42.826;23.992;2023-05-21T09:51:31;95162.72;;;19.77;100.00
40650;BME280;26342;42.826;23.992;2023-05-21T09:53:57;95165.25;;;20.00;100.00
40650;BME280;26342;42.826;23.992;2023-05-21T09:56:24;95154.56;;;19.95;100.00
40650;BME280;26342;42.826;23.992;2023-05-21T09:58:57;95151.81;;;20.12;100.00
40650;BME280;26342;42.826;23.992;2023-05-21T10:01:25;95140.94;;;20.29;100.00
40650;BME280;26342;42.826;23.992;2023-05-21T10:03:55;95151.25;;;20.53;100.00
40650;BME280;26342;42.826;23.992;2023-05-21T10:06:26;95146.72;;;20.66;100.00
40650;BME280;26342;42.826;23.992;2023-05-21T10:08:54;95150.19;;;20.75;100.00
40650;BME280;26342;42.826;23.992;2023-05-21T10:11:25;95141.41;;;21.08;100.00
40650;BME280;26342;42.826;23.992;2023-05-21T10:13:56;95124.66;;;21.06;100.00
40650;BME280;26342;42.826;23.992;2023-05-21T10:16:23;95134.78;;;21.47;100.00
40650;BME280;26342;42.826;23.992;2023-05-21T10:18:49;95137.16;;;21.69;100.00
40650;BME280;26342;42.826;23.992;2023-05-21T10:21:14;95137.47;;;21.47;100.00
40650;BME280;26342;42.826;23.992;2023-05-21T10:23:41;95138.41;;;21.01;100.00
40650;BME280;26342;42.826;23.992;2023-05-21T10:26:08;95122.09;;;21.09;100.00
40650;BME280;26342;42.826;23.992;2023-05-21T10:28:35;95138.31;;;21.18;100.00
40650;BME280;26342;42.826;23.992;2023-05-21T10:31:02;95135.00;;;21.12;100.00
40650;BME280;26342;42.826;23.992;2023-05-21T10:33:28;95127.03;;;21.07;100.00
40650;BME280;26342;42.826;23.992;2023-05-21T10:35:57;95120.88;;;20.98;100.00
40650;BME280;26342;42.826;23.992;2023-05-21T10:38:24;95127.19;;;20.81;100.00
40650;BME280;26342;42.826;23.992;2023-05-21T10:40:52;95129.97;;;20.73;100.00
40650;BME280;26342;42.826;23.992;2023-05-21T10:48:57;95132.25;;;20.53;100.00
40650;BME280;26342;42.826;23.992;2023-05-21T11:00:23;95124.13;;;20.53;100.00
40650;BME280;26342;42.826;23.992;2023-05-21T11:02:50;95122.53;;;20.52;100.00
40650;BME280;26342;42.826;23.992;2023-05-21T11:05:37;95116.66;;;20.50;100.00
40650;BME280;26342;42.826;23.992;2023-05-21T11:08:04;95117.31;;;20.47;100.00
40650;BME280;26342;42.826;23.992;2023-05-21T11:10:34;95116.25;;;20.69;100.00
40650;BME280;26342;42.826;23.992;2023-05-21T11:13:27;95105.31;;;20.86;100.00
40650;BME280;26342;42.826;23.992;2023-05-21T11:21:04;95096.47;;;20.98;100.00
40650;BME280;26342;42.826;23.992;2023-05-21T11:26:15;95091.16;;;21.31;100.00
40650;BME280;26342;42.826;23.992;2023-05-21T11:28:40;95080.28;;;21.52;100.00
40650;BME280;26342;42.826;23.992;2023-05-21T11:31:24;95086.47;;;21.73;100.00
40650;BME280;26342;42.826;23.992;2023-05-21T11:36:45;95077.56;;;21.85;74.58
40650;BME280;26342;42.826;23.992;2023-05-21T11:44:15;95063.44;;;21.92;74.88
40650;BME280;26342;42.826;23.992;2023-05-21T11:46:45;95069.75;;;22.17;71.48
40650;BME280;26342;42.826;23.992;2023-05-21T11:49:11;95072.25;;;22.22;67.36
40650;BME280;26342;42.826;23.992;2023-05-21T11:51:36;95064.06;;;22.10;61.84
40650;BME280;26342;42.826;23.992;2023-05-21T11:54:02;95066.94;;;21.92;70.20
40650;BME280;26342;42.826;23.992;2023-05-21T11:56:28;95070.09;;;21.82;73.55
40650;BME280;26342;42.826;23.992;2023-05-21T11:58:56;95072.59;;;21.54;88.00
40650;BME280;26342;42.826;23.992;2023-05-21T12:01:24;95074.06;;;21.31;89.38
40650;BME280;26342;42.826;23.992;2023-05-21T12:03:50;95056.22;;;21.30;87.07
40650;BME280;26342;42.826;23.992;2023-05-21T12:06:16;95064.28;;;21.17;83.49
40650;BME280;26342;42.826;23.992;2023-05-21T12:08:50;95039.84;;;20.97;84.47
40650;BME280;26342;42.826;23.992;2023-05-21T12:11:16;95047.63;;;20.77;85.03
40650;BME280;26342;42.826;23.992;2023-05-21T12:13:42;95054.72;;;20.70;84.42
40650;BME280;26342;42.826;23.992;2023-05-21T12:16:08;95053.44;;;20.67;86.58
40650;BME280;26342;42.826;23.992;2023-05-21T12:18:35;95053.31;;;20.84;80.70
40650;BME280;26342;42.826;23.992;2023-05-21T12:21:01;95050.31;;;20.77;78.88
40650;BME280;26342;42.826;23.992;2023-05-21T12:23:26;95050.38;;;20.69;82.28
40650;BME280;26342;42.826;23.992;2023-05-21T12:25:52;95056.34;;;20.62;83.92
40650;BME280;26342;42.826;23.992;2023-05-21T12:28:20;95055.41;;;20.58;83.46
40650;BME280;26342;42.826;23.992;2023-05-21T12:30:46;95052.31;;;20.68;81.84
40650;BME280;26342;42.826;23.992;2023-05-21T12:33:12;95052.22;;;20.85;79.99
40650;BME280;26342;42.826;23.992;2023-05-21T12:35:38;95054.88;;;20.94;80.28
40650;BME280;26342;42.826;23.992;2023-05-21T12:38:04;95056.56;;;20.99;78.46
40650;BME280;26342;42.826;23.992;2023-05-21T12:40:35;95042.88;;;20.95;77.60
40650;BME280;26342;42.826;23.992;2023-05-21T12:43:02;95051.81;;;21.16;76.65
40650;BME280;26342;42.826;23.992;2023-05-21T12:45:30;95024.28;;;21.06;75.12
40650;BME280;26342;42.826;23.992;2023-05-21T12:47:55;95046.59;;;21.32;76.62
40650;BME280;26342;42.826;23.992;2023-05-21T12:50:21;95051.72;;;21.34;71.36
40650;BME280;26342;42.826;23.992;2023-05-21T12:52:46;95045.34;;;21.30;67.71
40650;BME280;26342;42.826;23.992;2023-05-21T12:55:13;95040.38;;;21.32;69.60
40650;BME280;26342;42.826;23.992;2023-05-21T12:57:39;95042.97;;;21.49;66.71
40650;BME280;26342;42.826;23.992;2023-05-21T13:00:05;95033.31;;;21.72;68.72
40650;BME280;26342;42.826;23.992;2023-05-21T13:02:33;95018.13;;;21.71;58.56
40650;BME280;26342;42.826;23.992;2023-05-21T13:05:06;95030.59;;;21.85;59.09
40650;BME280;26342;42.826;23.992;2023-05-21T13:07:33;95034.34;;;21.92;56.13